Time;durP1;ratioP1;P1;durP2;ratioP2;P2;SDS_P1;SDS_P2;PMS_P1;PMS_P2;Temp;Humidity;BMP_temperature;BMP_pressure;BME280_temperature;BME280_humidity;BME280_pressure;Samples;Min_cycle;Max_cycle;Signal;HPM_P1;HPM_P2
2023/05/01 00:02:08;;;;;;;12.15;9.15;;;14.60;99.90;;;;;;1884252;75;21659;-78
2023/05/01 00:04:59;;;;;;;12.63;9.98;;;14.70;99.90;;;;;;1893219;75;21047;-78
2023/05/01 00:07:50;;;;;;;9.18;8.18;;;14.60;99.90;;;;;;1902590;75;21099;-77
2023/05/01 00:13:23;;;;;;;8.90;7.97;;;14.50;99.90;;;;;;1956683;72;22144;-78
2023/05/01 00:16:15;;;;;;;9.05;8.15;;;14.50;99.90;;;;;;1900418;75;21107;-78
2023/05/01 00:19:07;;;;;;;8.90;8.00;;;14.50;99.90;;;;;;1898551;75;21091;-78
2023/05/01 00:21:58;;;;;;;8.53;7.60;;;14.50;99.90;;;;;;1906066;75;21171;-78
2023/05/01 00:24:50;;;;;;;8.48;7.35;;;14.50;99.90;;;;;;1890785;75;21104;-78
2023/05/01 00:27:41;;;;;;;8.83;7.92;;;14.50;99.90;;;;;;1890289;75;21114;-78
2023/05/01 00:30:33;;;;;;;10.72;9.63;;;14.40;99.90;;;;;;1905591;75;21110;-77
2023/05/01 00:33:25;;;;;;;13.03;10.68;;;14.40;99.90;;;;;;1898762;75;21634;-78
2023/05/01 00:36:16;;;;;;;12.58;10.45;;;14.40;99.90;;;;;;1892895;75;21151;-78
2023/05/01 00:41:48;;;;;;;12.23;10.93;;;14.40;99.90;;;;;;1944661;72;22272;-77
2023/05/01 00:44:39;;;;;;;13.45;10.60;;;14.40;99.90;;;;;;1916518;75;21127;-77
2023/05/01 00:47:35;;;;;;;12.20;10.63;;;14.50;99.90;;;;;;1921223;73;21178;-77
2023/05/01 00:50:27;;;;;;;12.18;10.85;;;14.50;99.90;;;;;;1920654;73;21168;-77
2023/05/01 00:53:18;;;;;;;11.63;10.53;;;14.50;99.90;;;;;;1945155;73;21059;-77
2023/05/01 00:56:11;;;;;;;15.55;10.60;;;14.50;99.90;;;;;;1918918;73;21231;-77
2023/05/01 00:59:03;;;;;;;12.00;10.80;;;14.50;99.90;;;;;;1917178;73;21583;-77
2023/05/01 01:01:55;;;;;;;12.00;10.80;;;14.50;99.90;;;;;;1916609;75;21066;-80
2023/05/01 01:04:48;;;;;;;12.05;10.88;;;14.60;99.90;;;;;;1916510;75;21110;-78
2023/05/01 01:10:28;;;;;;;12.00;10.90;;;14.40;99.90;;;;;;1948073;72;22669;-78
2023/05/01 01:13:22;;;;;;;11.40;10.30;;;14.40;99.90;;;;;;1847191;77;21439;-77
2023/05/01 01:16:18;;;;;;;13.65;10.58;;;14.40;99.90;;;;;;1899718;75;21647;-78
2023/05/01 01:19:18;;;;;;;11.75;10.50;;;14.40;99.90;;;;;;1895938;75;21110;-77
2023/05/01 01:22:12;;;;;;;11.08;9.98;;;14.30;99.90;;;;;;1885242;75;21122;-80
2023/05/01 01:29:02;;;;;;;10.70;8.75;;;14.10;99.90;;;;;;1946933;72;22221;-78
2023/05/01 01:32:00;;;;;;;10.18;8.35;;;14.00;99.90;;;;;;1898939;75;21192;-79
2023/05/01 01:34:55;;;;;;;9.50;8.55;;;13.90;99.90;;;;;;1915187;74;21168;-78
2023/05/01 01:43:14;;;;;;;8.80;7.53;;;13.80;99.90;;;;;;1925738;72;22268;-77
2023/05/01 01:51:28;;;;;;;9.45;7.70;;;13.80;99.90;;;;;;1932695;72;22886;-78
2023/05/01 01:54:25;;;;;;;7.87;7.10;;;13.80;99.90;;;;;;1918212;74;21561;-78
2023/05/01 01:57:18;;;;;;;9.13;8.23;;;13.70;99.90;;;;;;1906827;75;21164;-78
2023/05/01 02:00:15;;;;;;;8.60;7.35;;;13.70;99.90;;;;;;1919404;74;21134;-78
2023/05/01 02:03:09;;;;;;;7.95;7.15;;;13.70;99.90;;;;;;1899446;75;21094;-77
2023/05/01 02:06:01;;;;;;;9.08;7.47;;;13.70;99.90;;;;;;1894720;75;21472;-78
2023/05/01 02:08:54;;;;;;;8.50;7.72;;;13.80;99.90;;;;;;1894562;75;21106;-77
2023/05/01 02:11:46;;;;;;;8.68;7.70;;;13.80;99.90;;;;;;1920713;74;21150;-78
2023/05/01 02:14:40;;;;;;;10.50;9.40;;;13.70;99.90;;;;;;1913016;74;21142;-77
2023/05/01 02:17:32;;;;;;;11.88;10.68;;;13.80;99.90;;;;;;1883603;76;21101;-78
2023/05/01 02:20:24;;;;;;;12.13;10.93;;;13.70;99.90;;;;;;1914227;74;21167;-77
2023/05/01 02:23:17;;;;;;;15.30;11.75;;;13.80;99.90;;;;;;1906339;75;21095;-78
2023/05/01 02:26:11;;;;;;;14.10;12.60;;;13.80;99.90;;;;;;1919207;74;21137;-77
2023/05/01 02:29:02;;;;;;;14.58;12.93;;;13.80;99.90;;;;;;1883888;76;21110;-78
2023/05/01 02:31:53;;;;;;;13.28;11.78;;;13.90;99.90;;;;;;1919354;74;21134;-77
2023/05/01 02:34:45;;;;;;;13.50;12.10;;;13.80;99.90;;;;;;1894332;75;21113;-78
2023/05/01 02:37:37;;;;;;;13.93;12.33;;;13.70;99.90;;;;;;1895520;75;21117;-78
2023/05/01 02:40:30;;;;;;;14.53;12.68;;;13.70;99.90;;;;;;1880159;76;21651;-78
2023/05/01 02:43:25;;;;;;;12.50;11.22;;;13.80;99.90;;;;;;1888101;74;21176;-78
2023/05/01 02:46:19;;;;;;;12.37;11.08;;;13.80;99.90;;;;;;1852287;76;21171;-79
2023/05/01 02:49:12;;;;;;;13.25;10.95;;;13.80;99.90;;;;;;1915230;74;21106;-79
2023/05/01 02:52:04;;;;;;;11.60;10.30;;;13.80;99.90;;;;;;1900477;75;21167;-79
2023/05/01 02:54:57;;;;;;;12.15;10.85;;;13.80;99.90;;;;;;1848607;77;21223;-79
2023/05/01 02:57:50;;;;;;;12.82;11.53;;;13.80;99.90;;;;;;1847611;76;21106;-78
2023/05/01 03:03:22;;;;;;;12.28;11.08;;;13.80;99.90;;;;;;1953272;72;22158;-78
2023/05/01 03:06:13;;;;;;;14.23;11.85;;;13.80;99.90;;;;;;1896086;75;21138;-80
2023/05/01 03:09:05;;;;;;;12.78;11.43;;;13.90;99.90;;;;;;1886327;75;21067;-80
2023/05/01 03:11:56;;;;;;;13.48;12.07;;;13.90;99.90;;;;;;1905967;75;21546;-81
2023/05/01 03:14:47;;;;;;;12.65;11.33;;;13.90;99.90;;;;;;1903148;75;21570;-79
2023/05/01 03:17:39;;;;;;;13.93;11.88;;;13.90;99.90;;;;;;1897548;75;21109;-79
2023/05/01 03:20:30;;;;;;;12.70;11.35;;;13.90;99.90;;;;;;1894598;75;21114;-78
2023/05/01 03:23:22;;;;;;;13.40;11.30;;;13.90;99.90;;;;;;1914788;75;21098;-78
2023/05/01 03:26:13;;;;;;;13.15;11.85;;;13.90;99.90;;;;;;1897209;75;21095;-78
2023/05/01 03:29:05;;;;;;;11.43;10.32;;;13.90;99.90;;;;;;1898156;75;21066;-78
2023/05/01 03:31:57;;;;;;;11.55;10.35;;;13.90;99.90;;;;;;1894655;75;21168;-78
2023/05/01 03:34:49;;;;;;;13.83;11.30;;;13.90;99.90;;;;;;1916656;75;21074;-78
2023/05/01 03:37:42;;;;;;;12.30;11.10;;;13.90;99.90;;;;;;1895665;75;21179;-78
2023/05/01 03:40:35;;;;;;;12.35;10.75;;;14.00;99.90;;;;;;1900030;75;21590;-78
2023/05/01 03:43:44;;;;;;;11.08;9.98;;;14.00;99.90;;;;;;1901256;75;21461;-78
2023/05/01 03:46:37;;;;;;;10.98;9.83;;;13.90;99.90;;;;;;1905678;75;21601;-78
2023/05/01 03:49:30;;;;;;;12.33;10.20;;;13.90;99.90;;;;;;1906135;75;21060;-78
2023/05/01 03:52:21;;;;;;;14.43;11.68;;;13.90;99.90;;;;;;1884300;75;21158;-78
2023/05/01 03:55:12;;;;;;;12.03;9.98;;;13.90;99.90;;;;;;1899453;75;21106;-78
2023/05/01 03:58:04;;;;;;;10.45;9.35;;;13.80;99.90;;;;;;1895602;75;21094;-78
2023/05/01 04:00:59;;;;;;;11.57;10.38;;;13.70;99.90;;;;;;1852538;76;21104;-78
2023/05/01 04:03:50;;;;;;;15.25;10.85;;;13.70;99.90;;;;;;1814404;77;21133;-78
2023/05/01 04:06:43;;;;;;;11.90;9.70;;;13.80;99.90;;;;;;1903344;75;21095;-78
2023/05/01 04:09:34;;;;;;;10.65;9.55;;;13.70;99.90;;;;;;1866109;76;21552;-78
2023/05/01 04:12:25;;;;;;;11.45;9.83;;;13.70;99.90;;;;;;1906197;75;21176;-78
2023/05/01 04:15:17;;;;;;;10.98;9.98;;;13.70;99.90;;;;;;1886192;75;21176;-78
2023/05/01 04:18:08;;;;;;;10.80;9.70;;;13.70;99.90;;;;;;1896241;74;21092;-78
2023/05/01 04:21:00;;;;;;;9.73;8.78;;;13.70;99.90;;;;;;1883660;76;21110;-80
2023/05/01 04:23:51;;;;;;;10.98;8.80;;;13.70;99.90;;;;;;1914833;75;21152;-79
2023/05/01 04:26:43;;;;;;;12.37;11.00;;;13.80;99.90;;;;;;1858098;76;21113;-79
2023/05/01 04:29:34;;;;;;;12.18;10.48;;;13.80;99.90;;;;;;1894997;75;21126;-78
2023/05/01 04:32:26;;;;;;;12.80;11.38;;;13.80;99.90;;;;;;1899543;75;21095;-78
2023/05/01 04:35:17;;;;;;;13.28;11.30;;;13.80;99.90;;;;;;1894225;75;21667;-78
2023/05/01 04:38:09;;;;;;;14.23;12.53;;;13.80;99.90;;;;;;1894322;75;21117;-78
2023/05/01 04:41:01;;;;;;;14.38;12.15;;;13.90;99.90;;;;;;1914675;75;21165;-78
2023/05/01 04:43:52;;;;;;;14.00;12.53;;;13.90;99.90;;;;;;1900844;75;21136;-78
2023/05/01 04:46:44;;;;;;;13.43;12.03;;;13.90;99.90;;;;;;1896671;75;21152;-78
2023/05/01 04:49:35;;;;;;;11.40;10.20;;;14.00;99.90;;;;;;1894191;75;21546;-79
2023/05/01 04:52:27;;;;;;;11.93;10.72;;;14.00;99.90;;;;;;1893859;75;21106;-78
2023/05/01 04:55:20;;;;;;;9.10;8.25;;;14.00;99.90;;;;;;1896209;75;21139;-78
2023/05/01 04:58:19;;;;;;;10.13;9.13;;;14.00;99.90;;;;;;1899753;75;21159;-78
2023/05/01 05:01:13;;;;;;;8.48;7.28;;;14.00;99.90;;;;;;1883969;75;21574;-79
2023/05/01 05:04:04;;;;;;;7.67;6.97;;;14.00;99.90;;;;;;1877568;75;21144;-79
2023/05/01 05:06:57;;;;;;;7.80;6.80;;;14.00;99.90;;;;;;1893097;75;21996;-78
2023/05/01 05:09:49;;;;;;;6.83;6.12;;;14.00;99.90;;;;;;1888847;75;21155;-78
2023/05/01 05:12:41;;;;;;;6.83;5.08;;;14.00;99.90;;;;;;1883617;75;21164;-78
2023/05/01 05:15:32;;;;;;;5.12;4.70;;;13.90;99.90;;;;;;1894124;75;21094;-78
2023/05/01 05:18:25;;;;;;;6.20;5.62;;;13.90;99.90;;;;;;1891002;75;21089;-79
2023/05/01 05:21:17;;;;;;;4.20;3.80;;;13.90;99.90;;;;;;1883125;76;21146;-79
2023/05/01 05:24:13;;;;;;;7.60;6.10;;;13.90;99.90;;;;;;1898656;75;21365;-79
2023/05/01 05:27:05;;;;;;;10.80;9.78;;;13.90;99.90;;;;;;1905752;75;21118;-79
2023/05/01 05:29:56;;;;;;;11.73;10.53;;;13.90;99.90;;;;;;1882842;75;21402;-79
2023/05/01 05:32:48;;;;;;;12.13;10.93;;;14.00;99.90;;;;;;1882772;75;21571;-79
2023/05/01 05:38:21;;;;;;;14.73;10.95;;;14.10;99.90;;;;;;1943204;72;22601;-78
2023/05/01 05:41:13;;;;;;;10.72;8.93;;;14.10;99.90;;;;;;1836979;77;21456;-78
2023/05/01 05:44:05;;;;;;;9.25;8.25;;;14.10;99.90;;;;;;1904811;75;21105;-80
2023/05/01 05:46:56;;;;;;;12.05;10.30;;;14.20;99.90;;;;;;1900100;75;21098;-78
2023/05/01 05:49:49;;;;;;;7.95;6.12;;;14.20;99.90;;;;;;1895223;75;21451;-87
2023/05/01 05:52:41;;;;;;;8.45;6.78;;;14.20;99.90;;;;;;1909948;75;21160;-79
2023/05/01 05:55:32;;;;;;;5.42;4.03;;;14.30;99.90;;;;;;1905130;75;21554;-78
2023/05/01 05:58:26;;;;;;;5.75;5.25;;;14.30;99.90;;;;;;1883665;76;21145;-78
2023/05/01 06:01:17;;;;;;;12.35;10.53;;;14.30;99.90;;;;;;1884541;75;21230;-78
2023/05/01 06:04:10;;;;;;;4.97;4.10;;;14.30;99.90;;;;;;1905517;75;21217;-78
2023/05/01 06:07:01;;;;;;;5.03;4.30;;;14.30;99.90;;;;;;1905222;75;21111;-78
2023/05/01 06:09:53;;;;;;;4.35;3.72;;;14.30;99.90;;;;;;1883318;76;21102;-78
2023/05/01 06:12:46;;;;;;;4.67;3.75;;;14.10;99.90;;;;;;1878740;74;21139;-79
2023/05/01 06:15:39;;;;;;;4.62;4.15;;;14.00;99.90;;;;;;1894447;74;21111;-79
2023/05/01 06:18:34;;;;;;;6.00;4.40;;;13.90;99.90;;;;;;1890205;75;21104;-78
2023/05/01 06:21:26;;;;;;;3.98;3.58;;;13.80;99.90;;;;;;1904626;75;21095;-78
2023/05/01 06:24:21;;;;;;;4.90;4.08;;;13.70;99.90;;;;;;1900047;75;21138;-78
2023/05/01 06:27:14;;;;;;;5.12;4.33;;;13.50;99.90;;;;;;1920810;74;21582;-78
2023/05/01 06:30:08;;;;;;;4.33;3.92;;;13.40;99.90;;;;;;1894601;75;21127;-78
2023/05/01 06:33:01;;;;;;;4.20;3.80;;;13.40;99.90;;;;;;1914104;75;21101;-78
2023/05/01 06:35:53;;;;;;;4.40;3.70;;;13.50;99.90;;;;;;1903320;75;21139;-78
2023/05/01 06:38:47;;;;;;;4.15;3.33;;;13.60;99.90;;;;;;1911125;74;21075;-78
2023/05/01 06:41:38;;;;;;;5.40;4.90;;;13.60;99.90;;;;;;1900473;74;21163;-78
2023/05/01 06:44:30;;;;;;;9.03;7.50;;;13.70;99.90;;;;;;1921648;74;21142;-79
2023/05/01 06:47:23;;;;;;;8.23;7.40;;;13.80;99.90;;;;;;1898951;75;21711;-78
2023/05/01 06:50:14;;;;;;;8.85;7.95;;;13.90;99.90;;;;;;1915016;74;21091;-78
2023/05/01 06:53:06;;;;;;;5.22;4.72;;;13.90;99.90;;;;;;1909995;74;21117;-78
2023/05/01 06:55:58;;;;;;;4.65;3.92;;;14.00;99.90;;;;;;1909648;74;21109;-78
2023/05/01 06:58:49;;;;;;;3.83;3.42;;;14.00;99.90;;;;;;1909365;74;21191;-78
2023/05/01 07:01:41;;;;;;;3.72;3.30;;;13.90;99.90;;;;;;1900758;74;21160;-78
2023/05/01 07:04:33;;;;;;;6.08;4.00;;;13.90;99.90;;;;;;1911559;74;21098;-78
2023/05/01 07:07:24;;;;;;;3.60;3.27;;;13.80;99.90;;;;;;1920790;74;21134;-78
2023/05/01 07:10:16;;;;;;;3.92;3.52;;;13.80;99.90;;;;;;1915838;74;21078;-78
2023/05/01 07:15:47;;;;;;;3.67;3.37;;;13.90;99.90;;;;;;1937790;72;23141;-78
2023/05/01 07:18:38;;;;;;;4.03;3.62;;;13.80;99.90;;;;;;1936243;73;21099;-77
2023/05/01 07:21:30;;;;;;;4.15;3.33;;;13.90;99.90;;;;;;1921860;73;21050;-80
2023/05/01 07:24:22;;;;;;;3.47;3.17;;;13.90;99.90;;;;;;1928966;73;21097;-78
2023/05/01 07:27:13;;;;;;;3.98;3.47;;;13.90;99.90;;;;;;1927091;73;21094;-78
2023/05/01 07:30:07;;;;;;;5.55;3.67;;;14.00;99.90;;;;;;1924615;73;21086;-78
2023/05/01 07:32:58;;;;;;;4.17;3.02;;;14.10;99.90;;;;;;1925104;73;21175;-78
2023/05/01 07:35:53;;;;;;;4.08;3.08;;;14.10;99.90;;;;;;1927069;73;21078;-78
2023/05/01 07:38:44;;;;;;;3.87;3.45;;;14.20;99.90;;;;;;1929809;73;21119;-78
2023/05/01 07:41:36;;;;;;;3.95;3.55;;;14.20;99.90;;;;;;1924964;73;21540;-78
2023/05/01 07:44:29;;;;;;;3.37;3.05;;;14.30;99.90;;;;;;1919897;73;21239;-78
2023/05/01 07:47:21;;;;;;;5.70;3.65;;;14.30;99.90;;;;;;1936816;73;21551;-78
2023/05/01 07:50:13;;;;;;;3.95;3.47;;;14.30;99.90;;;;;;1930814;73;21140;-78
2023/05/01 07:53:04;;;;;;;4.92;3.83;;;14.30;99.90;;;;;;1925950;73;21147;-78
2023/05/01 07:55:57;;;;;;;4.22;3.83;;;14.30;99.90;;;;;;1924499;73;21093;-78
2023/05/01 08:01:28;;;;;;;3.85;3.10;;;14.40;99.90;;;;;;1940217;72;22209;-77
2023/05/01 08:04:21;;;;;;;4.03;3.10;;;14.40;99.90;;;;;;1914676;75;21208;-76
2023/05/01 08:07:12;;;;;;;4.50;3.65;;;14.30;99.90;;;;;;1893889;75;21205;-77
2023/05/01 08:10:04;;;;;;;3.72;2.95;;;14.40;99.90;;;;;;1895124;75;21581;-78
2023/05/01 08:12:55;;;;;;;3.52;2.83;;;14.20;99.90;;;;;;1899284;75;21047;-77
2023/05/01 08:15:47;;;;;;;4.10;3.70;;;13.90;99.90;;;;;;1906017;75;21132;-78
2023/05/01 08:18:39;;;;;;;4.30;3.72;;;13.70;99.90;;;;;;1888108;75;21187;-78
2023/05/01 08:21:30;;;;;;;4.80;3.70;;;13.60;99.90;;;;;;1887604;75;21109;-79
2023/05/01 08:24:22;;;;;;;4.35;3.40;;;13.50;99.90;;;;;;1898936;75;21102;-77
2023/05/01 08:27:13;;;;;;;3.47;2.95;;;13.60;99.90;;;;;;1883376;75;21594;-78
2023/05/01 08:30:06;;;;;;;3.72;2.95;;;13.70;99.90;;;;;;1889907;75;21168;-77
2023/05/01 08:32:58;;;;;;;4.60;3.90;;;13.80;99.90;;;;;;1894259;75;21181;-77
2023/05/01 08:35:50;;;;;;;4.10;3.65;;;13.80;99.90;;;;;;1916391;75;21094;-82
2023/05/01 08:38:41;;;;;;;3.42;3.12;;;13.80;99.90;;;;;;1897049;75;21118;-78
2023/05/01 08:41:35;;;;;;;4.83;3.77;;;13.90;99.90;;;;;;1916279;75;21186;-77
2023/05/01 08:44:28;;;;;;;5.85;4.20;;;13.90;99.90;;;;;;1913253;75;21133;-78
2023/05/01 08:47:20;;;;;;;4.30;3.77;;;14.00;99.90;;;;;;1903630;75;21115;-78
2023/05/01 08:50:13;;;;;;;4.92;4.37;;;14.10;99.90;;;;;;1898623;75;21184;-78
2023/05/01 08:53:05;;;;;;;8.05;7.25;;;14.10;99.90;;;;;;1893631;75;21179;-78
2023/05/01 08:55:59;;;;;;;5.78;4.58;;;14.30;99.90;;;;;;1888581;75;21172;-78
2023/05/01 08:58:51;;;;;;;6.00;4.37;;;14.40;99.90;;;;;;1905594;75;21619;-78
2023/05/01 09:01:43;;;;;;;5.55;3.83;;;14.30;99.90;;;;;;1905392;74;21117;-79
2023/05/01 09:07:15;;;;;;;4.90;4.17;;;14.40;99.90;;;;;;1920080;72;22328;-78
2023/05/01 09:10:08;;;;;;;5.25;4.75;;;14.40;99.90;;;;;;1895761;75;21207;-84
2023/05/01 09:15:39;;;;;;;7.28;6.17;;;14.50;99.90;;;;;;1940792;72;22261;-78
2023/05/01 09:18:30;;;;;;;6.75;6.15;;;14.50;99.90;;;;;;1904393;75;21646;-78
2023/05/01 09:21:23;;;;;;;5.08;4.58;;;14.60;99.90;;;;;;1915276;75;21168;-78
2023/05/01 09:26:56;;;;;;;5.37;4.87;;;14.70;99.90;;;;;;1926245;72;22868;-78
2023/05/01 09:29:49;;;;;;;5.40;4.90;;;14.80;99.90;;;;;;1893654;75;21735;-78
2023/05/01 09:35:19;;;;;;;4.55;4.15;;;14.90;99.90;;;;;;1946798;72;22162;-78
2023/05/01 09:38:11;;;;;;;5.65;3.55;;;14.90;99.90;;;;;;1895313;75;21094;-78
2023/05/01 09:41:06;;;;;;;3.17;2.77;;;14.90;99.90;;;;;;1910054;75;21172;-78
2023/05/01 09:43:58;;;;;;;4.55;2.70;;;14.80;99.90;;;;;;1896304;75;21161;-78
2023/05/01 09:49:47;;;;;;;1.52;1.30;;;15.00;99.90;;;;;;1930898;72;22299;-80
2023/05/01 09:52:38;;;;;;;1.30;1.20;;;15.00;99.90;;;;;;1889762;75;21118;-79
2023/05/01 09:55:29;;;;;;;1.57;1.47;;;15.00;99.90;;;;;;1899272;75;21095;-80
2023/05/01 09:58:28;;;;;;;5.80;1.60;;;15.10;99.90;;;;;;1898543;74;21089;-80
2023/05/01 10:01:21;;;;;;;2.45;1.65;;;15.10;99.90;;;;;;1903848;75;21079;-80
2023/05/01 10:04:13;;;;;;;3.98;2.60;;;15.10;99.90;;;;;;1885470;75;21083;-79
2023/05/01 10:07:14;;;;;;;3.35;1.37;;;15.10;99.90;;;;;;1892176;75;21118;-79
2023/05/01 10:10:20;;;;;;;2.72;2.17;;;15.10;99.90;;;;;;1889813;75;21066;-79
2023/05/01 10:16:00;;;;;;;4.40;2.62;;;15.20;99.90;;;;;;1941043;72;22266;-79
2023/05/01 10:21:32;;;;;;;2.95;2.00;;;15.00;99.90;;;;;;1928507;72;22195;-79
2023/05/01 10:27:04;;;;;;;3.77;2.67;;;14.80;99.90;;;;;;1926074;72;22225;-81
2023/05/01 10:29:55;;;;;;;7.00;3.77;;;14.70;99.90;;;;;;1872114;75;21044;-81
2023/05/01 10:32:48;;;;;;;4.62;2.90;;;14.50;99.90;;;;;;1883926;75;21149;-81
2023/05/01 10:35:43;;;;;;;2.70;2.15;;;14.50;99.90;;;;;;1890466;75;21095;-79
2023/05/01 10:38:36;;;;;;;2.22;2.02;;;14.50;99.90;;;;;;1879226;75;21155;-79
2023/05/01 10:42:09;;;;;;;8.20;6.70;;;14.70;99.90;;;;;;1879606;75;21166;-79
2023/05/01 10:47:47;;;;;;;4.62;3.12;;;14.70;99.90;;;;;;1954232;72;22177;-79
2023/05/01 10:51:11;;;;;;;3.65;3.25;;;14.50;99.90;;;;;;1893028;75;21105;-80
2023/05/01 10:54:26;;;;;;;3.75;3.12;;;14.60;99.90;;;;;;1907223;75;21366;-80
2023/05/01 10:57:23;;;;;;;3.60;2.75;;;15.00;99.90;;;;;;1904010;75;21102;-80
2023/05/01 11:00:18;;;;;;;5.35;3.52;;;15.30;99.90;;;;;;1902634;75;21152;-80
2023/05/01 11:03:38;;;;;;;3.30;3.00;;;15.70;99.90;;;;;;1885061;75;21562;-80
2023/05/01 11:09:38;;;;;;;3.83;3.45;;;16.40;99.90;;;;;;1949376;72;22268;-79
2023/05/01 11:12:51;;;;;;;4.03;3.50;;;16.70;99.90;;;;;;1916797;74;21118;-80
2023/05/01 11:15:43;;;;;;;5.45;3.45;;;16.70;99.90;;;;;;1922247;74;21095;-80
2023/05/01 11:18:47;;;;;;;6.17;3.80;;;16.90;99.90;;;;;;1910786;74;21100;-79
2023/05/01 11:21:40;;;;;;;3.55;3.25;;;16.50;99.90;;;;;;1931225;73;21145;-79
2023/05/01 11:27:18;;;;;;;3.60;3.30;;;17.60;99.90;;;;;;1931621;72;22765;-79
2023/05/01 11:32:54;;;;;;;3.25;2.95;;;18.10;99.90;;;;;;1950390;72;22204;-79
2023/05/01 11:38:26;;;;;;;3.62;3.27;;;18.40;99.90;;;;;;1920051;72;22289;-82
2023/05/01 11:41:20;;;;;;;4.30;3.45;;;18.40;99.90;;;;;;1897957;75;21216;-80
2023/05/01 11:44:15;;;;;;;4.12;3.72;;;18.30;99.90;;;;;;1895229;75;21055;-80
2023/05/01 11:49:50;;;;;;;4.72;3.40;;;17.90;99.90;;;;;;1934109;72;22257;-80
2023/05/01 11:52:48;;;;;;;3.77;3.25;;;17.70;99.90;;;;;;1906402;74;21060;-81
2023/05/01 11:55:39;;;;;;;4.08;3.67;;;17.60;99.90;;;;;;1892006;75;21199;-81
2023/05/01 11:58:35;;;;;;;4.22;3.83;;;17.60;99.90;;;;;;1870933;75;21177;-81
2023/05/01 12:04:16;;;;;;;4.17;3.58;;;18.00;99.90;;;;;;1938558;72;22173;-79
2023/05/01 12:07:09;;;;;;;4.12;3.72;;;18.20;99.90;;;;;;1908280;75;21175;-79
2023/05/01 12:12:40;;;;;;;6.53;3.60;;;18.60;99.90;;;;;;1940762;72;22158;-79
2023/05/01 12:15:33;;;;;;;4.17;3.37;;;18.60;99.90;;;;;;1892824;75;21091;-79
2023/05/01 12:21:05;;;;;;;4.20;3.47;;;17.80;99.90;;;;;;1932956;72;22975;-79
2023/05/01 12:26:34;;;;;;;3.72;3.00;;;17.40;99.90;;;;;;1934325;72;22638;-77
2023/05/01 12:32:04;;;;;;;2.60;2.10;;;16.60;99.90;;;;;;1970760;72;22676;-79
2023/05/01 12:34:56;;;;;;;3.60;2.70;;;16.40;99.90;;;;;;1929311;73;21107;-77
2023/05/01 12:37:47;;;;;;;3.15;2.85;;;16.10;99.90;;;;;;1926860;73;21106;-79
2023/05/01 12:43:19;;;;;;;4.67;2.87;;;15.90;99.90;;;;;;1936679;72;22233;-76
2023/05/01 12:46:13;;;;;;;2.80;2.40;;;15.90;99.90;;;;;;1916380;74;21092;-76
2023/05/01 12:49:05;;;;;;;2.95;2.75;;;16.00;99.90;;;;;;1914077;74;21097;-78
2023/05/01 12:51:58;;;;;;;2.80;2.55;;;16.00;99.90;;;;;;1915034;75;21112;-76
2023/05/01 12:54:50;;;;;;;2.65;2.45;;;16.20;99.90;;;;;;1904915;74;21106;-77
2023/05/01 12:57:53;;;;;;;2.92;2.62;;;16.30;99.90;;;;;;1861127;76;21645;-77
2023/05/01 13:00:50;;;;;;;4.58;3.20;;;16.40;99.90;;;;;;1905019;74;21142;-76
2023/05/01 13:03:43;;;;;;;3.17;2.80;;;16.50;99.90;;;;;;1905336;75;21181;-76
2023/05/01 13:06:35;;;;;;;4.25;2.98;;;16.40;99.90;;;;;;1890640;75;21198;-76
2023/05/01 13:12:09;;;;;;;2.98;2.67;;;16.20;99.90;;;;;;1946560;72;22176;-78
2023/05/01 13:15:00;;;;;;;4.50;2.83;;;16.30;99.90;;;;;;1915396;73;21118;-78
2023/05/01 13:17:51;;;;;;;3.22;2.85;;;16.50;99.90;;;;;;1887719;75;21176;-78
2023/05/01 13:20:43;;;;;;;5.87;2.92;;;16.70;99.90;;;;;;1903250;74;21098;-78
2023/05/01 13:23:34;;;;;;;4.03;3.33;;;17.10;99.90;;;;;;1903363;75;21516;-77
2023/05/01 13:26:29;;;;;;;5.12;4.10;;;17.70;99.90;;;;;;1912488;74;21106;-77
2023/05/01 13:29:22;;;;;;;5.15;3.80;;;17.80;99.90;;;;;;1903998;75;21114;-77
2023/05/01 13:32:15;;;;;;;4.72;4.00;;;17.70;99.90;;;;;;1912010;74;21114;-77
2023/05/01 13:35:15;;;;;;;8.75;5.87;;;17.60;99.90;;;;;;1906193;74;21090;-78
2023/05/01 13:38:10;;;;;;;5.65;3.25;;;17.20;99.90;;;;;;1903768;75;21122;-78
2023/05/01 13:41:03;;;;;;;2.70;2.10;;;17.00;99.90;;;;;;1903684;75;21549;-78
2023/05/01 13:46:34;;;;;;;1.82;0.88;;;16.60;99.90;;;;;;1926321;72;22236;-77
2023/05/01 13:49:25;;;;;;;1.22;0.70;;;16.30;99.90;;;;;;1888861;75;21633;-77
2023/05/01 13:52:18;;;;;;;0.30;0.30;;;16.00;99.90;;;;;;1899355;75;21169;-78
2023/05/01 13:55:10;;;;;;;1.65;0.20;;;15.80;99.90;;;;;;1898792;75;21201;-78
2023/05/01 13:58:02;;;;;;;0.40;0.40;;;15.70;99.90;;;;;;1896496;75;21216;-77
2023/05/01 14:00:53;;;;;;;0.90;0.33;;;15.50;99.90;;;;;;1903965;74;21145;-77
2023/05/01 14:03:44;;;;;;;0.37;0.30;;;15.50;99.90;;;;;;1907258;73;21151;-77
2023/05/01 14:06:41;;;;;;;0.53;0.50;;;15.30;99.90;;;;;;1896069;75;21159;-76
2023/05/01 14:09:36;;;;;;;0.30;0.30;;;15.20;99.90;;;;;;1900276;75;21110;-77
2023/05/01 14:12:28;;;;;;;2.75;0.45;;;15.30;99.90;;;;;;1889802;75;21188;-77
2023/05/01 14:15:19;;;;;;;0.95;0.33;;;15.50;99.90;;;;;;1893244;75;21186;-78
2023/05/01 14:18:12;;;;;;;0.95;0.30;;;15.60;99.90;;;;;;1897573;73;21672;-78
2023/05/01 14:21:05;;;;;;;2.17;0.72;;;15.70;99.90;;;;;;1920869;73;21135;-78
2023/05/01 14:23:57;;;;;;;2.45;0.65;;;15.70;99.90;;;;;;1894655;75;21104;-77
2023/05/01 14:26:49;;;;;;;0.70;0.60;;;15.60;99.90;;;;;;1901567;73;21167;-77
2023/05/01 14:32:22;;;;;;;2.25;0.65;;;15.40;99.90;;;;;;1957109;72;22579;-78
2023/05/01 14:35:13;;;;;;;1.20;0.80;;;15.30;99.90;;;;;;1919811;73;21150;-78
2023/05/01 14:38:09;;;;;;;0.70;0.65;;;15.30;99.90;;;;;;1922036;73;21098;-77
2023/05/01 14:41:00;;;;;;;4.80;1.00;;;15.40;99.90;;;;;;1928301;73;21204;-77
2023/05/01 14:43:52;;;;;;;3.45;1.15;;;15.50;99.90;;;;;;1928077;73;21103;-77
2023/05/01 14:49:25;;;;;;;1.42;0.90;;;15.40;99.90;;;;;;1936611;72;22263;-76
2023/05/01 14:52:21;;;;;;;1.60;0.80;;;15.30;99.90;;;;;;1907826;75;21651;-77
2023/05/01 14:55:14;;;;;;;3.52;0.90;;;15.30;99.90;;;;;;1897351;75;21110;-77
2023/05/01 14:58:05;;;;;;;1.77;0.90;;;15.40;99.90;;;;;;1899013;75;22385;-77
2023/05/01 15:00:57;;;;;;;1.10;0.90;;;15.40;99.90;;;;;;1905816;75;21051;-77
2023/05/01 15:03:49;;;;;;;1.98;1.12;;;15.50;99.90;;;;;;1906291;75;21144;-77
2023/05/01 15:09:19;;;;;;;1.77;1.17;;;15.70;99.90;;;;;;1935192;72;22203;-76
2023/05/01 15:12:11;;;;;;;1.30;1.05;;;15.60;99.90;;;;;;1870965;75;21094;-78
2023/05/01 15:15:02;;;;;;;1.37;1.10;;;15.50;99.90;;;;;;1878497;75;21168;-78
2023/05/01 15:17:54;;;;;;;1.25;1.00;;;15.50;99.90;;;;;;1872327;76;21119;-77
2023/05/01 15:20:45;;;;;;;1.30;0.98;;;15.60;99.90;;;;;;1883929;75;21103;-77
2023/05/01 15:23:37;;;;;;;6.92;1.37;;;15.70;99.90;;;;;;1882870;75;21044;-77
2023/05/01 15:26:28;;;;;;;1.47;0.90;;;16.00;99.90;;;;;;1897362;75;21582;-77
2023/05/01 15:29:19;;;;;;;2.55;1.20;;;16.60;99.90;;;;;;1876374;75;21147;-77
2023/05/01 15:32:10;;;;;;;2.12;0.98;;;17.40;99.90;;;;;;1872423;75;21172;-77
2023/05/01 15:35:03;;;;;;;1.80;0.75;;;17.70;99.90;;;;;;1870432;75;21609;-77
2023/05/01 15:37:55;;;;;;;2.65;0.82;;;17.60;99.90;;;;;;1883738;73;21087;-77
2023/05/01 15:40:48;;;;;;;2.27;0.80;;;17.40;99.90;;;;;;1883003;75;21574;-77
2023/05/01 15:43:40;;;;;;;1.12;0.80;;;17.40;99.90;;;;;;1878127;75;21103;-77
2023/05/01 15:46:31;;;;;;;1.57;0.70;;;18.00;99.90;;;;;;1872296;76;21140;-77
2023/05/01 15:49:23;;;;;;;0.80;0.70;;;19.50;99.90;;;;;;1893146;75;21083;-78
2023/05/01 15:52:15;;;;;;;0.82;0.62;;;20.90;99.90;;;;;;1880080;75;21184;-77
2023/05/01 15:55:08;;;;;;;1.07;0.62;;;20.30;99.90;;;;;;1893604;75;21124;-77
2023/05/01 15:58:00;;;;;;;1.60;0.70;;;20.00;99.90;;;;;;1883537;75;21107;-77
2023/05/01 16:00:52;;;;;;;1.92;0.90;;;19.70;99.90;;;;;;1889930;75;21185;-78
2023/05/01 16:03:47;;;;;;;0.93;0.80;;;19.30;99.90;;;;;;1879344;75;21106;-78
2023/05/01 16:06:40;;;;;;;2.58;1.22;;;18.70;99.90;;;;;;1893149;75;21213;-78
2023/05/01 16:12:11;;;;;;;7.40;2.65;;;17.60;99.90;;;;;;1939187;72;22170;-76
2023/05/01 16:17:45;;;;;;;1.10;0.60;;;16.90;99.90;;;;;;1940192;72;22273;-76
2023/05/01 16:20:41;;;;;;;1.00;0.85;;;16.60;99.90;;;;;;1895762;75;21150;-77
2023/05/01 16:23:32;;;;;;;0.98;0.90;;;16.20;99.90;;;;;;1907410;75;21503;-77
2023/05/01 16:26:25;;;;;;;0.90;0.80;;;15.90;99.90;;;;;;1916892;75;21102;-77
2023/05/01 16:29:20;;;;;;;0.80;0.80;;;15.80;99.90;;;;;;1902153;75;21200;-77
2023/05/01 16:32:12;;;;;;;6.10;2.65;;;15.60;99.90;;;;;;1908440;74;21843;-77
2023/05/01 16:35:05;;;;;;;2.35;1.70;;;15.50;99.90;;;;;;1914855;75;21374;-77
2023/05/01 16:37:56;;;;;;;6.67;2.60;;;15.40;99.90;;;;;;1916550;75;21089;-78
2023/05/01 16:40:48;;;;;;;2.05;1.00;;;15.50;99.90;;;;;;1896683;75;21063;-77
2023/05/01 16:43:40;;;;;;;1.57;1.17;;;15.40;99.90;;;;;;1879204;75;21137;-78